Time;durP1;ratioP1;P1;durP2;ratioP2;P2;SDS_P1;SDS_P2;PMS_P1;PMS_P2;Temp;Humidity;BMP_temperature;BMP_pressure;BME280_temperature;BME280_humidity;BME280_pressure;Samples;Min_cycle;Max_cycle;Signal;HPM_P1;HPM_P2
2021/06/26 00:01:55;;;;;;;12.38;8.57;;;;;;;;;;4996829;28;20393;-59
2021/06/26 00:04:21;;;;;;;14.00;9.80;;;;;;;;;;4998821;28;20056;-59
2021/06/26 00:06:46;;;;;;;15.63;10.32;;;;;;;;;;5001255;28;20030;-59
2021/06/26 00:09:12;;;;;;;16.45;9.40;;;;;;;;;;4997917;28;20449;-59
2021/06/26 00:11:38;;;;;;;13.07;9.15;;;;;;;;;;5000906;28;20036;-59
2021/06/26 00:14:04;;;;;;;12.00;9.13;;;;;;;;;;5005327;28;20033;-60
2021/06/26 00:16:29;;;;;;;16.30;9.05;;;;;;;;;;4997418;28;20084;-59
2021/06/26 00:18:54;;;;;;;16.67;9.57;;;;;;;;;;5001695;28;20374;-59
2021/06/26 00:21:20;;;;;;;12.85;8.93;;;;;;;;;;5006921;28;20375;-59
2021/06/26 00:23:45;;;;;;;13.80;9.60;;;;;;;;;;5004036;28;20339;-60
2021/06/26 00:26:11;;;;;;;14.57;9.40;;;;;;;;;;4998795;28;20393;-59
2021/06/26 00:28:37;;;;;;;15.98;8.52;;;;;;;;;;5002598;28;20030;-59
2021/06/26 00:31:02;;;;;;;17.35;9.75;;;;;;;;;;4997603;28;20088;-59
2021/06/26 00:33:28;;;;;;;16.33;9.73;;;;;;;;;;5004508;28;20035;-59
2021/06/26 00:35:53;;;;;;;14.27;9.85;;;;;;;;;;5003657;28;20037;-59
2021/06/26 00:38:18;;;;;;;17.98;9.90;;;;;;;;;;5001512;28;20045;-59
2021/06/26 00:40:44;;;;;;;14.93;10.05;;;;;;;;;;5002034;28;20093;-59
2021/06/26 00:43:09;;;;;;;15.60;9.50;;;;;;;;;;4996227;28;20081;-59
2021/06/26 00:45:35;;;;;;;15.43;10.18;;;;;;;;;;5002933;28;20072;-59
2021/06/26 00:48:00;;;;;;;14.60;9.95;;;;;;;;;;5005242;28;20041;-60
2021/06/26 00:50:28;;;;;;;14.52;8.93;;;;;;;;;;5003210;28;20556;-60
2021/06/26 00:52:53;;;;;;;14.50;9.88;;;;;;;;;;5010180;28;20034;-60
2021/06/26 00:55:20;;;;;;;14.88;9.52;;;;;;;;;;5002388;28;20033;-60
2021/06/26 00:57:50;;;;;;;12.40;9.48;;;;;;;;;;5001926;28;20121;-60
2021/06/26 01:00:16;;;;;;;14.82;9.55;;;;;;;;;;5008425;28;20058;-60
2021/06/26 01:02:42;;;;;;;14.75;9.75;;;;;;;;;;5002465;28;20030;-60
2021/06/26 01:05:09;;;;;;;14.57;9.68;;;;;;;;;;5003011;28;20450;-60
2021/06/26 01:07:34;;;;;;;14.55;10.13;;;;;;;;;;5002303;28;20564;-60
2021/06/26 01:10:00;;;;;;;12.75;9.10;;;;;;;;;;5013856;28;20108;-61
2021/06/26 01:12:25;;;;;;;15.73;10.25;;;;;;;;;;5005720;28;20025;-60
2021/06/26 01:14:51;;;;;;;12.85;9.20;;;;;;;;;;5003650;28;20030;-60
2021/06/26 01:17:17;;;;;;;16.60;10.35;;;;;;;;;;5005026;28;20025;-60
2021/06/26 01:19:42;;;;;;;15.50;10.40;;;;;;;;;;4998168;28;20037;-60
2021/06/26 01:22:08;;;;;;;14.07;9.38;;;;;;;;;;5002864;28;20045;-59
2021/06/26 01:24:34;;;;;;;14.75;10.50;;;;;;;;;;5000871;28;20053;-60
2021/06/26 01:27:00;;;;;;;18.25;10.10;;;;;;;;;;5005744;28;20124;-60
2021/06/26 01:29:26;;;;;;;14.73;9.63;;;;;;;;;;4998881;28;20161;-60
2021/06/26 01:31:52;;;;;;;16.05;9.82;;;;;;;;;;5005105;28;20121;-60
2021/06/26 01:34:19;;;;;;;16.30;10.23;;;;;;;;;;5006099;28;20114;-60
2021/06/26 01:36:44;;;;;;;13.65;9.95;;;;;;;;;;4998582;28;20036;-60
2021/06/26 01:39:10;;;;;;;14.82;9.90;;;;;;;;;;5003479;28;20401;-60
2021/06/26 01:41:35;;;;;;;15.35;10.35;;;;;;;;;;5022585;28;20515;-61
2021/06/26 01:44:02;;;;;;;16.15;10.90;;;;;;;;;;5001733;28;20036;-60
2021/06/26 01:46:28;;;;;;;14.82;10.40;;;;;;;;;;5004302;28;20042;-60
2021/06/26 01:49:03;;;;;;;17.35;10.25;;;;;;;;;;4997946;28;20141;-60
2021/06/26 01:51:31;;;;;;;15.75;10.57;;;;;;;;;;5004424;28;20029;-60
2021/06/26 01:53:57;;;;;;;14.63;10.73;;;;;;;;;;4997723;28;20022;-60
2021/06/26 01:56:22;;;;;;;20.02;10.73;;;;;;;;;;5011238;28;20088;-60
2021/06/26 01:58:48;;;;;;;15.75;10.30;;;;;;;;;;5006503;28;20033;-60
2021/06/26 02:01:13;;;;;;;16.75;11.15;;;;;;;;;;5003441;28;20296;-60
2021/06/26 02:03:39;;;;;;;16.65;10.63;;;;;;;;;;5008769;28;20040;-60
2021/06/26 02:06:04;;;;;;;13.70;10.15;;;;;;;;;;5002291;28;20052;-60
2021/06/26 02:08:32;;;;;;;16.40;10.13;;;;;;;;;;4998942;28;20281;-60
2021/06/26 02:10:57;;;;;;;14.80;10.15;;;;;;;;;;5000872;28;20026;-60
2021/06/26 02:13:22;;;;;;;16.73;10.45;;;;;;;;;;4993000;28;20030;-60
2021/06/26 02:15:48;;;;;;;16.02;10.10;;;;;;;;;;5007051;28;20076;-60
2021/06/26 02:18:13;;;;;;;15.18;9.93;;;;;;;;;;5006402;28;20033;-60
2021/06/26 02:20:39;;;;;;;17.50;11.70;;;;;;;;;;4998917;28;20026;-60
2021/06/26 02:23:04;;;;;;;17.05;10.73;;;;;;;;;;5001161;28;20513;-60
2021/06/26 02:25:29;;;;;;;15.23;10.07;;;;;;;;;;4999392;28;20088;-60
2021/06/26 02:27:55;;;;;;;21.48;11.25;;;;;;;;;;5000949;28;20026;-60
2021/06/26 02:30:21;;;;;;;17.13;11.45;;;;;;;;;;5000022;28;20591;-60
2021/06/26 02:32:46;;;;;;;18.27;12.02;;;;;;;;;;5004823;28;20108;-60
2021/06/26 02:35:12;;;;;;;15.70;11.32;;;;;;;;;;5004393;28;20075;-59
2021/06/26 02:37:39;;;;;;;15.90;11.18;;;;;;;;;;4999913;28;20058;-60
2021/06/26 02:40:05;;;;;;;20.30;11.60;;;;;;;;;;5012019;28;20345;-61
2021/06/26 02:42:30;;;;;;;16.90;10.50;;;;;;;;;;5018352;28;20103;-59
2021/06/26 02:44:55;;;;;;;17.60;10.57;;;;;;;;;;5006151;28;20095;-59
2021/06/26 02:47:22;;;;;;;16.27;10.32;;;;;;;;;;5008201;28;20070;-59
2021/06/26 02:49:47;;;;;;;15.82;11.45;;;;;;;;;;5007460;28;20069;-59
2021/06/26 02:52:13;;;;;;;15.75;11.50;;;;;;;;;;5004664;28;20057;-59
2021/06/26 02:54:38;;;;;;;17.90;10.85;;;;;;;;;;5007973;28;20037;-59
2021/06/26 02:57:04;;;;;;;17.42;11.32;;;;;;;;;;5007061;28;20029;-59
2021/06/26 02:59:29;;;;;;;19.42;11.13;;;;;;;;;;5010680;28;20116;-59
2021/06/26 03:01:55;;;;;;;18.88;11.82;;;;;;;;;;4998668;28;20033;-59
2021/06/26 03:04:20;;;;;;;17.30;11.13;;;;;;;;;;5000823;28;20030;-61
2021/06/26 03:06:46;;;;;;;16.80;11.20;;;;;;;;;;5003413;28;20090;-59
2021/06/26 03:09:11;;;;;;;16.95;10.55;;;;;;;;;;5006870;28;20384;-59
2021/06/26 03:11:37;;;;;;;15.98;11.15;;;;;;;;;;5016975;28;20463;-58
2021/06/26 03:14:02;;;;;;;16.05;10.55;;;;;;;;;;5009309;28;20050;-58
2021/06/26 03:16:28;;;;;;;15.80;10.70;;;;;;;;;;5001716;28;20038;-58
2021/06/26 03:18:53;;;;;;;17.85;11.35;;;;;;;;;;5002653;28;20092;-59
2021/06/26 03:21:18;;;;;;;19.88;11.45;;;;;;;;;;5002960;28;20120;-59
2021/06/26 03:23:44;;;;;;;17.65;11.15;;;;;;;;;;5010518;28;20101;-59
2021/06/26 03:26:09;;;;;;;16.77;10.48;;;;;;;;;;5003184;28;20028;-59
2021/06/26 03:28:36;;;;;;;18.50;11.15;;;;;;;;;;4999616;28;20034;-61
2021/06/26 03:31:02;;;;;;;16.75;10.27;;;;;;;;;;5005472;28;20110;-60
2021/06/26 03:33:28;;;;;;;18.27;11.48;;;;;;;;;;5003140;28;20034;-60
2021/06/26 03:35:53;;;;;;;16.33;10.93;;;;;;;;;;5003315;28;20188;-60
2021/06/26 03:38:18;;;;;;;16.60;10.48;;;;;;;;;;4998374;28;20488;-61
2021/06/26 03:40:44;;;;;;;19.17;11.55;;;;;;;;;;5002533;28;20058;-60
2021/06/26 03:43:09;;;;;;;18.25;11.77;;;;;;;;;;5005459;28;20026;-60
2021/06/26 03:45:35;;;;;;;17.50;12.05;;;;;;;;;;5001713;28;20375;-61
2021/06/26 03:48:00;;;;;;;18.40;10.77;;;;;;;;;;5006436;28;20037;-61
2021/06/26 03:50:26;;;;;;;19.67;11.63;;;;;;;;;;5001076;28;20040;-60
2021/06/26 03:52:51;;;;;;;22.98;11.20;;;;;;;;;;5000218;28;20533;-60
2021/06/26 03:55:16;;;;;;;17.90;10.90;;;;;;;;;;5001266;28;20033;-60
2021/06/26 03:57:42;;;;;;;15.90;11.27;;;;;;;;;;5003310;28;20444;-60
2021/06/26 04:00:09;;;;;;;15.88;10.13;;;;;;;;;;5004933;28;20030;-60
2021/06/26 04:02:34;;;;;;;19.25;11.95;;;;;;;;;;5001869;28;20089;-60
2021/06/26 04:05:00;;;;;;;24.75;12.95;;;;;;;;;;5005883;28;20030;-60
2021/06/26 04:07:25;;;;;;;22.55;12.25;;;;;;;;;;5006964;28;20040;-60
2021/06/26 04:09:51;;;;;;;27.30;15.73;;;;;;;;;;5002573;28;20345;-60
2021/06/26 04:12:16;;;;;;;27.70;16.00;;;;;;;;;;4997728;28;20034;-60
2021/06/26 04:14:42;;;;;;;34.13;16.92;;;;;;;;;;5005177;28;20121;-60
2021/06/26 04:17:07;;;;;;;32.80;17.58;;;;;;;;;;4998542;28;20041;-60
2021/06/26 04:19:32;;;;;;;33.03;16.98;;;;;;;;;;4998805;28;20042;-60
2021/06/26 04:21:58;;;;;;;30.85;16.83;;;;;;;;;;5001802;28;20169;-60
2021/06/26 04:24:24;;;;;;;31.00;17.17;;;;;;;;;;5003936;28;20030;-60
2021/06/26 04:26:52;;;;;;;29.08;16.55;;;;;;;;;;5005530;28;20527;-60
2021/06/26 04:29:17;;;;;;;31.98;17.08;;;;;;;;;;4999074;28;20462;-60
2021/06/26 04:31:43;;;;;;;29.67;16.42;;;;;;;;;;5002607;28;20110;-60
2021/06/26 04:34:09;;;;;;;31.95;17.52;;;;;;;;;;5003662;28;20018;-60
2021/06/26 04:36:34;;;;;;;30.67;16.50;;;;;;;;;;4999941;28;20492;-60
2021/06/26 04:39:00;;;;;;;32.50;17.08;;;;;;;;;;5003847;28;20388;-60
2021/06/26 04:41:27;;;;;;;30.52;16.33;;;;;;;;;;5003661;28;20029;-60
2021/06/26 04:43:53;;;;;;;29.02;16.30;;;;;;;;;;4999166;28;20273;-60
2021/06/26 04:46:18;;;;;;;31.85;15.77;;;;;;;;;;5001739;28;20036;-60
2021/06/26 04:48:44;;;;;;;26.38;14.88;;;;;;;;;;5021885;28;20025;-60
2021/06/26 04:51:09;;;;;;;25.35;14.50;;;;;;;;;;5006474;28;20511;-60
2021/06/26 04:53:34;;;;;;;29.50;16.70;;;;;;;;;;5001082;28;20530;-60
2021/06/26 04:56:00;;;;;;;32.53;16.15;;;;;;;;;;5000622;28;20049;-60
2021/06/26 04:58:25;;;;;;;27.73;15.68;;;;;;;;;;5002401;28;20072;-60
2021/06/26 05:00:52;;;;;;;29.48;16.48;;;;;;;;;;4997518;28;20030;-60
2021/06/26 05:03:22;;;;;;;29.13;15.85;;;;;;;;;;4999117;28;20469;-60
2021/06/26 05:05:49;;;;;;;27.42;16.00;;;;;;;;;;5007794;28;20396;-60
2021/06/26 05:08:15;;;;;;;29.50;16.15;;;;;;;;;;5005840;28;20444;-60
2021/06/26 05:10:40;;;;;;;32.35;17.63;;;;;;;;;;5007656;28;20036;-60
2021/06/26 05:13:06;;;;;;;28.63;16.80;;;;;;;;;;5005754;28;20017;-60
2021/06/26 05:15:32;;;;;;;33.47;18.40;;;;;;;;;;5006938;28;20034;-60
2021/06/26 05:17:58;;;;;;;31.25;17.42;;;;;;;;;;5018720;28;20034;-60
2021/06/26 05:20:23;;;;;;;30.83;17.02;;;;;;;;;;5001592;28;20084;-60
2021/06/26 05:22:49;;;;;;;27.20;15.30;;;;;;;;;;5001858;28;20030;-59
2021/06/26 05:25:14;;;;;;;28.17;15.77;;;;;;;;;;5013153;28;20505;-59
2021/06/26 05:27:41;;;;;;;24.70;14.75;;;;;;;;;;5007693;28;20029;-59
2021/06/26 05:30:06;;;;;;;23.20;14.68;;;;;;;;;;5002890;28;20041;-60
2021/06/26 05:32:32;;;;;;;23.63;14.57;;;;;;;;;;5001236;28;20041;-60
2021/06/26 05:34:57;;;;;;;23.88;14.50;;;;;;;;;;4999191;28;20030;-59
2021/06/26 05:37:23;;;;;;;24.83;13.70;;;;;;;;;;5002317;28;20018;-60
2021/06/26 05:39:48;;;;;;;21.85;14.32;;;;;;;;;;5000363;28;20026;-60
2021/06/26 05:42:13;;;;;;;21.10;14.52;;;;;;;;;;4997861;28;20494;-60
2021/06/26 05:44:39;;;;;;;21.20;14.05;;;;;;;;;;5004118;28;20116;-59
2021/06/26 05:47:04;;;;;;;22.48;14.02;;;;;;;;;;5006593;28;20022;-60
2021/06/26 05:49:30;;;;;;;22.35;13.98;;;;;;;;;;4998435;28;20080;-60
2021/06/26 05:51:55;;;;;;;23.08;14.80;;;;;;;;;;4996056;28;20546;-60
2021/06/26 05:54:21;;;;;;;24.65;14.88;;;;;;;;;;4999904;28;20392;-60
2021/06/26 05:56:46;;;;;;;23.95;14.63;;;;;;;;;;4998999;28;20080;-60
2021/06/26 05:59:12;;;;;;;20.98;13.90;;;;;;;;;;4999703;28;20466;-60
2021/06/26 06:01:37;;;;;;;26.25;15.27;;;;;;;;;;5002030;28;20115;-59
2021/06/26 06:04:06;;;;;;;21.23;14.02;;;;;;;;;;5005017;28;20112;-59
2021/06/26 06:06:31;;;;;;;21.17;12.97;;;;;;;;;;5003601;28;20032;-60
2021/06/26 06:08:57;;;;;;;20.48;13.18;;;;;;;;;;4993386;28;20683;-59
2021/06/26 06:11:22;;;;;;;23.48;14.95;;;;;;;;;;5000044;28;20113;-59
2021/06/26 06:13:48;;;;;;;26.10;14.80;;;;;;;;;;5005037;28;20053;-59
2021/06/26 06:16:13;;;;;;;23.45;14.88;;;;;;;;;;5006079;28;20042;-59
2021/06/26 06:18:38;;;;;;;20.80;13.98;;;;;;;;;;4997525;28;20361;-58
2021/06/26 06:21:04;;;;;;;25.85;14.57;;;;;;;;;;4996417;28;20102;-58
2021/06/26 06:23:30;;;;;;;22.38;15.10;;;;;;;;;;4998435;28;20444;-58
2021/06/26 06:25:55;;;;;;;21.42;13.70;;;;;;;;;;4995527;28;20033;-59
2021/06/26 06:28:21;;;;;;;20.33;14.00;;;;;;;;;;5004886;28;20030;-60
2021/06/26 06:30:48;;;;;;;20.55;13.23;;;;;;;;;;4997160;28;20030;-60
2021/06/26 06:33:13;;;;;;;18.98;13.55;;;;;;;;;;4997674;28;20088;-60
2021/06/26 06:35:38;;;;;;;20.13;13.35;;;;;;;;;;4999121;28;20030;-60
2021/06/26 06:38:04;;;;;;;19.50;13.13;;;;;;;;;;5000285;28;20384;-60
2021/06/26 06:40:30;;;;;;;22.98;13.80;;;;;;;;;;4998173;28;20026;-60
2021/06/26 06:42:56;;;;;;;20.58;13.10;;;;;;;;;;4993859;28;20484;-60
2021/06/26 06:45:21;;;;;;;23.67;13.52;;;;;;;;;;4997341;28;20084;-60
2021/06/26 06:47:47;;;;;;;21.90;13.50;;;;;;;;;;5003906;28;20114;-60
2021/06/26 06:50:13;;;;;;;24.25;14.43;;;;;;;;;;4996292;28;20029;-59
2021/06/26 06:52:38;;;;;;;18.23;11.80;;;;;;;;;;5013517;28;20042;-59
2021/06/26 06:55:05;;;;;;;16.48;10.80;;;;;;;;;;5004240;28;20059;-59
2021/06/26 06:57:31;;;;;;;17.05;11.32;;;;;;;;;;4998672;28;20021;-59
2021/06/26 06:59:57;;;;;;;22.50;13.57;;;;;;;;;;5003831;28;20402;-60
2021/06/26 07:02:22;;;;;;;19.85;13.55;;;;;;;;;;5001109;28;20120;-61
2021/06/26 07:04:48;;;;;;;20.40;13.70;;;;;;;;;;5000069;28;20116;-60
2021/06/26 07:07:14;;;;;;;19.00;12.98;;;;;;;;;;5003047;28;20567;-60
2021/06/26 07:09:39;;;;;;;22.10;14.13;;;;;;;;;;4999175;28;20313;-61
2021/06/26 07:12:05;;;;;;;26.30;14.25;;;;;;;;;;5005330;28;20100;-60
2021/06/26 07:14:31;;;;;;;20.08;13.93;;;;;;;;;;5006837;28;20029;-60
2021/06/26 07:16:56;;;;;;;20.88;14.43;;;;;;;;;;5008074;28;20026;-62
2021/06/26 07:19:22;;;;;;;19.85;13.30;;;;;;;;;;5007045;28;20480;-63
2021/06/26 07:21:47;;;;;;;20.98;13.63;;;;;;;;;;5000210;28;20544;-61
2021/06/26 07:24:13;;;;;;;20.20;13.27;;;;;;;;;;5003015;28;20055;-61
2021/06/26 07:26:39;;;;;;;19.75;13.43;;;;;;;;;;4999464;28;20037;-61
2021/06/26 07:29:05;;;;;;;21.27;14.10;;;;;;;;;;5004054;28;20026;-61
2021/06/26 07:31:31;;;;;;;20.20;13.88;;;;;;;;;;5009445;28;20500;-60
2021/06/26 07:33:57;;;;;;;19.95;13.70;;;;;;;;;;5011428;28;20065;-60
2021/06/26 07:36:23;;;;;;;20.15;13.90;;;;;;;;;;5022820;28;20057;-61
2021/06/26 07:38:48;;;;;;;21.95;14.55;;;;;;;;;;5010204;28;20149;-61
2021/06/26 07:41:14;;;;;;;22.85;15.32;;;;;;;;;;5004229;28;20680;-62
2021/06/26 07:43:39;;;;;;;17.33;12.32;;;;;;;;;;5007926;28;20029;-60
2021/06/26 07:46:06;;;;;;;19.65;13.90;;;;;;;;;;5003987;28;20033;-61
2021/06/26 07:48:31;;;;;;;23.33;15.23;;;;;;;;;;5005243;28;20112;-60
2021/06/26 07:50:57;;;;;;;24.55;14.77;;;;;;;;;;4995937;28;20487;-60
2021/06/26 07:53:23;;;;;;;19.42;13.73;;;;;;;;;;5002137;28;20026;-61
2021/06/26 07:55:51;;;;;;;21.83;15.10;;;;;;;;;;5001928;28;20061;-60
2021/06/26 07:58:25;;;;;;;23.85;15.30;;;;;;;;;;5002736;28;20405;-61
2021/06/26 08:00:52;;;;;;;25.08;15.75;;;;;;;;;;5003708;28;20288;-61
2021/06/26 08:03:19;;;;;;;24.08;16.48;;;;;;;;;;5005728;28;20108;-61
2021/06/26 08:05:46;;;;;;;20.88;15.20;;;;;;;;;;5003841;28;20033;-61
2021/06/26 08:08:12;;;;;;;23.50;14.38;;;;;;;;;;5005089;28;20566;-61
2021/06/26 08:10:38;;;;;;;21.45;14.85;;;;;;;;;;5003410;28;20029;-61
2021/06/26 08:13:03;;;;;;;25.98;16.10;;;;;;;;;;5002176;28;20080;-61
2021/06/26 08:15:29;;;;;;;21.48;15.38;;;;;;;;;;5006401;28;20037;-61
2021/06/26 08:17:55;;;;;;;22.13;15.20;;;;;;;;;;5009589;28;20628;-61
2021/06/26 08:20:22;;;;;;;20.73;14.52;;;;;;;;;;5001899;28;20030;-61
2021/06/26 08:22:47;;;;;;;24.40;15.30;;;;;;;;;;4999725;28;20098;-61
2021/06/26 08:25:13;;;;;;;21.75;15.48;;;;;;;;;;5005416;28;20185;-61
2021/06/26 08:27:38;;;;;;;19.63;13.90;;;;;;;;;;4993809;28;20384;-61
2021/06/26 08:30:05;;;;;;;21.67;13.82;;;;;;;;;;5017567;28;20106;-61
2021/06/26 08:32:30;;;;;;;21.90;15.82;;;;;;;;;;4997372;28;20045;-61
2021/06/26 08:34:56;;;;;;;20.88;14.30;;;;;;;;;;5008991;28;20033;-61
2021/06/26 08:37:21;;;;;;;19.70;14.63;;;;;;;;;;5008761;28;20028;-60
2021/06/26 08:39:46;;;;;;;18.88;14.07;;;;;;;;;;4999705;28;20408;-60
2021/06/26 08:42:12;;;;;;;21.08;13.77;;;;;;;;;;4999648;28;20037;-60
2021/06/26 08:44:39;;;;;;;17.25;13.70;;;;;;;;;;4998430;28;20033;-61
2021/06/26 08:47:04;;;;;;;19.70;14.52;;;;;;;;;;4999086;28;20030;-60
2021/06/26 08:49:30;;;;;;;20.65;14.57;;;;;;;;;;5004077;28;20033;-60
2021/06/26 08:51:55;;;;;;;16.60;13.00;;;;;;;;;;4995287;28;20034;-59
2021/06/26 08:54:21;;;;;;;16.77;12.82;;;;;;;;;;5001542;28;20024;-60
2021/06/26 08:56:48;;;;;;;16.27;12.75;;;;;;;;;;5003304;28;20469;-60
2021/06/26 08:59:16;;;;;;;19.77;13.40;;;;;;;;;;4993511;28;20029;-60
2021/06/26 09:01:43;;;;;;;16.48;12.75;;;;;;;;;;4998795;28;20026;-60
2021/06/26 09:04:12;;;;;;;16.67;13.23;;;;;;;;;;5003351;28;20512;-60
2021/06/26 09:06:56;;;;;;;;;;;;;;;;;;5005973;28;20040;-60
2021/06/26 09:09:33;;;;;;;17.45;12.48;;;;;;;;;;5004058;28;19914;-60
2021/06/26 09:12:10;;;;;;;18.77;13.13;;;;;;;;;;5003956;28;20095;-60
2021/06/26 09:14:43;;;;;;;16.73;12.85;;;;;;;;;;5001712;28;20036;-60
2021/06/26 09:17:08;;;;;;;15.85;12.60;;;;;;;;;;5005564;28;20464;-60
2021/06/26 09:19:36;;;;;;;16.77;11.93;;;;;;;;;;5001036;28;20113;-60
2021/06/26 09:22:07;;;;;;;15.68;13.07;;;;;;;;;;5004465;28;20480;-59
2021/06/26 09:24:36;;;;;;;16.02;12.93;;;;;;;;;;4999425;28;20042;-60
2021/06/26 09:27:02;;;;;;;16.92;13.20;;;;;;;;;;5001298;28;20029;-60
2021/06/26 09:29:28;;;;;;;18.15;11.82;;;;;;;;;;4999491;28;20459;-60
2021/06/26 09:31:59;;;;;;;17.35;11.55;;;;;;;;;;5012243;28;20057;-60
2021/06/26 09:34:40;;;;;;;17.67;11.00;;;;;;;;;;5005280;28;20045;-60
2021/06/26 09:37:09;;;;;;;14.98;12.15;;;;;;;;;;5018210;28;20396;-60
2021/06/26 09:39:43;;;;;;;16.65;12.45;;;;;;;;;;5005268;28;20037;-60
2021/06/26 09:42:25;;;;;;;16.25;12.45;;;;;;;;;;5008629;28;20038;-60
2021/06/26 09:44:57;;;;;;;16.60;12.60;;;;;;;;;;4999407;28;20045;-59
2021/06/26 09:47:26;;;;;;;14.77;11.55;;;;;;;;;;5016201;28;20029;-60
2021/06/26 09:49:52;;;;;;;;;;;;;;;;;;4996214;28;20104;-59
2021/06/26 09:52:17;;;;;;;13.48;11.40;;;;;;;;;;5000742;28;20049;-60
2021/06/26 09:54:42;;;;;;;13.82;10.88;;;;;;;;;;5001602;28;20037;-60
2021/06/26 09:57:08;;;;;;;13.05;10.77;;;;;;;;;;4997231;28;20308;-60
2021/06/26 09:59:34;;;;;;;13.82;10.30;;;;;;;;;;5004336;28;20108;-61
2021/06/26 10:02:00;;;;;;;12.25;10.07;;;;;;;;;;5001279;28;20033;-60
2021/06/26 10:04:26;;;;;;;12.80;10.35;;;;;;;;;;4998148;28;20037;-60
2021/06/26 10:06:52;;;;;;;12.60;10.35;;;;;;;;;;5001505;28;20463;-60
2021/06/26 10:09:19;;;;;;;12.32;10.13;;;;;;;;;;5014970;28;20030;-59
2021/06/26 10:11:46;;;;;;;12.10;10.32;;;;;;;;;;4998419;28;20118;-60
2021/06/26 10:14:12;;;;;;;12.45;9.40;;;;;;;;;;5001081;28;20101;-60
2021/06/26 10:16:41;;;;;;;9.57;8.30;;;;;;;;;;5004376;28;20030;-60
2021/06/26 10:19:12;;;;;;;11.80;8.90;;;;;;;;;;5000996;28;20073;-60
2021/06/26 10:21:38;;;;;;;14.30;10.90;;;;;;;;;;4997554;28;20034;-60
2021/06/26 10:24:09;;;;;;;12.40;10.13;;;;;;;;;;5005679;28;20725;-60
2021/06/26 10:26:37;;;;;;;13.27;9.77;;;;;;;;;;5000373;28;20022;-60
2021/06/26 10:29:03;;;;;;;9.57;8.57;;;;;;;;;;4997826;28;20092;-60
2021/06/26 10:31:32;;;;;;;15.10;11.00;;;;;;;;;;5004222;28;20044;-60
2021/06/26 10:34:17;;;;;;;15.93;11.00;;;;;;;;;;4995323;28;20034;-60
2021/06/26 10:36:51;;;;;;;14.43;10.88;;;;;;;;;;4997499;28;20029;-60
2021/06/26 10:39:28;;;;;;;10.63;9.40;;;;;;;;;;4996535;28;20106;-59
2021/06/26 10:42:08;;;;;;;10.18;8.43;;;;;;;;;;4999812;28;20048;-59
2021/06/26 10:44:51;;;;;;;12.23;8.55;;;;;;;;;;5004503;28;20470;-59
2021/06/26 10:47:19;;;;;;;14.70;11.15;;;;;;;;;;5007049;28;20113;-60
2021/06/26 10:49:45;;;;;;;19.80;13.73;;;;;;;;;;5001837;28;20475;-60
2021/06/26 10:52:14;;;;;;;12.82;10.30;;;;;;;;;;5000565;28;20643;-59
2021/06/26 10:54:56;;;;;;;7.67;6.63;;;;;;;;;;4995983;28;20492;-60
2021/06/26 10:57:24;;;;;;;8.13;6.78;;;;;;;;;;4996474;28;20030;-59
2021/06/26 11:00:01;;;;;;;11.43;8.38;;;;;;;;;;5001142;28;20034;-59
2021/06/26 11:02:40;;;;;;;9.63;7.35;;;;;;;;;;4998693;28;20038;-61
2021/06/26 11:05:08;;;;;;;8.75;7.85;;;;;;;;;;5012029;28;20046;-59
2021/06/26 11:07:34;;;;;;;7.80;6.30;;;;;;;;;;5012543;28;20029;-61
2021/06/26 11:10:09;;;;;;;11.65;5.85;;;;;;;;;;5006832;28;20026;-60
2021/06/26 11:12:48;;;;;;;9.07;6.07;;;;;;;;;;5013766;28;20423;-60
2021/06/26 11:15:16;;;;;;;8.18;6.32;;;;;;;;;;5007577;28;20053;-60
2021/06/26 11:17:43;;;;;;;6.45;5.80;;;;;;;;;;5003294;28;20088;-60
2021/06/26 11:20:15;;;;;;;15.82;8.00;;;;;;;;;;4996792;28;20397;-59
2021/06/26 11:22:58;;;;;;;9.10;7.70;;;;;;;;;;5007133;28;20531;-59
2021/06/26 11:25:28;;;;;;;13.43;9.07;;;;;;;;;;5006257;28;20524;-60
2021/06/26 11:28:05;;;;;;;8.25;7.10;;;;;;;;;;5000948;28;20029;-59
2021/06/26 11:30:30;;;;;;;7.30;6.60;;;;;;;;;;5002408;28;20030;-60
2021/06/26 11:32:58;;;;;;;7.25;6.55;;;;;;;;;;4999476;28;20028;-60
2021/06/26 11:35:31;;;;;;;7.53;6.40;;;;;;;;;;5001983;28;20425;-60
2021/06/26 11:37:57;;;;;;;7.20;6.50;;;;;;;;;;5001942;28;20033;-60
2021/06/26 11:40:24;;;;;;;7.07;6.38;;;;;;;;;;5003099;28;20037;-60
2021/06/26 11:42:59;;;;;;;9.38;6.30;;;;;;;;;;5009947;28;20029;-60
2021/06/26 11:45:36;;;;;;;8.45;6.38;;;;;;;;;;5012251;28;20395;-60
2021/06/26 11:48:16;;;;;;;6.53;5.75;;;;;;;;;;5001613;28;20049;-60
2021/06/26 11:50:55;;;;;;;6.50;5.85;;;;;;;;;;5000617;28;20045;-61
2021/06/26 11:53:23;;;;;;;7.65;5.80;;;;;;;;;;5006223;28;20026;-60
2021/06/26 11:55:59;;;;;;;8.23;5.90;;;;;;;;;;5009979;28;20065;-61
2021/06/26 11:58:40;;;;;;;7.30;5.93;;;;;;;;;;5002521;28;20065;-61
2021/06/26 12:01:08;;;;;;;10.30;6.20;;;;;;;;;;5002710;28;20033;-61
2021/06/26 12:03:34;;;;;;;7.07;6.03;;;;;;;;;;5000104;28;20042;-60
2021/06/26 12:06:01;;;;;;;5.70;5.20;;;;;;;;;;5000548;28;20025;-61
2021/06/26 12:08:28;;;;;;;7.18;5.95;;;;;;;;;;5004627;28;20049;-61
2021/06/26 12:10:53;;;;;;;5.97;5.38;;;;;;;;;;5001685;28;20018;-62
2021/06/26 12:13:19;;;;;;;6.32;5.72;;;;;;;;;;5000918;28;20528;-60
2021/06/26 12:15:44;;;;;;;5.88;5.28;;;;;;;;;;5003425;28;20032;-60
2021/06/26 12:18:10;;;;;;;5.78;5.28;;;;;;;;;;5005244;28;20026;-60
2021/06/26 12:20:38;;;;;;;6.05;5.43;;;;;;;;;;5000445;28;20060;-60
2021/06/26 12:23:08;;;;;;;6.50;5.90;;;;;;;;;;5004717;28;20030;-60
2021/06/26 12:25:42;;;;;;;6.13;5.50;;;;;;;;;;4997319;28;20037;-60
2021/06/26 12:28:08;;;;;;;6.90;5.32;;;;;;;;;;4999503;28;20025;-61
2021/06/26 12:30:36;;;;;;;5.95;5.38;;;;;;;;;;5006027;28;20082;-61
2021/06/26 12:33:08;;;;;;;5.43;4.95;;;;;;;;;;5003549;28;20482;-61
2021/06/26 12:35:34;;;;;;;6.03;5.43;;;;;;;;;;5001949;28;20026;-61
2021/06/26 12:37:59;;;;;;;8.55;5.88;;;;;;;;;;5007679;28;20091;-61
2021/06/26 12:40:30;;;;;;;5.97;5.38;;;;;;;;;;4997650;28;20021;-62
2021/06/26 12:43:06;;;;;;;6.00;4.97;;;;;;;;;;5016258;28;20030;-62
2021/06/26 12:45:31;;;;;;;5.57;4.97;;;;;;;;;;5008020;28;20022;-61
2021/06/26 12:48:01;;;;;;;9.00;5.00;;;;;;;;;;5005223;28;20451;-61
2021/06/26 12:50:31;;;;;;;5.13;4.63;;;;;;;;;;5000314;28;20081;-61
2021/06/26 12:52:58;;;;;;;4.82;4.43;;;;;;;;;;5007205;28;20026;-61
2021/06/26 12:55:23;;;;;;;5.00;4.50;;;;;;;;;;5004214;28;20115;-63
2021/06/26 12:57:49;;;;;;;6.45;4.93;;;;;;;;;;5001709;28;20074;-62
2021/06/26 13:00:16;;;;;;;10.15;5.07;;;;;;;;;;5004539;28;20062;-61
2021/06/26 13:02:41;;;;;;;4.82;4.38;;;;;;;;;;5003741;28;20032;-60
2021/06/26 13:05:20;;;;;;;4.72;4.22;;;;;;;;;;5001498;28;20034;-61
2021/06/26 13:07:45;;;;;;;5.25;4.75;;;;;;;;;;4999289;28;20053;-62
2021/06/26 13:10:10;;;;;;;8.00;4.43;;;;;;;;;;5007994;28;20034;-61
2021/06/26 13:12:36;;;;;;;4.70;4.25;;;;;;;;;;4998915;28;20042;-60
2021/06/26 13:15:04;;;;;;;4.35;3.95;;;;;;;;;;5014060;28;20026;-61
2021/06/26 13:17:31;;;;;;;4.70;4.28;;;;;;;;;;5001015;28;20131;-60
2021/06/26 13:19:58;;;;;;;4.50;4.10;;;;;;;;;;5006137;28;20030;-61
2021/06/26 13:22:25;;;;;;;5.05;4.57;;;;;;;;;;4997739;28;20028;-60
2021/06/26 13:24:51;;;;;;;4.03;3.72;;;;;;;;;;5001609;28;20306;-60
2021/06/26 13:27:18;;;;;;;4.35;3.95;;;;;;;;;;5007528;28;20029;-60
2021/06/26 13:29:43;;;;;;;4.35;3.95;;;;;;;;;;4999334;28;20026;-60
2021/06/26 13:32:09;;;;;;;4.72;4.22;;;;;;;;;;5000650;28;20038;-61
2021/06/26 13:34:36;;;;;;;4.40;4.00;;;;;;;;;;4997870;28;20018;-60
2021/06/26 13:37:01;;;;;;;6.18;4.32;;;;;;;;;;4999449;28;20397;-60
2021/06/26 13:39:27;;;;;;;4.47;4.07;;;;;;;;;;5000559;28;20066;-61
2021/06/26 13:41:52;;;;;;;4.95;4.55;;;;;;;;;;4998018;28;20389;-61
2021/06/26 13:44:18;;;;;;;4.45;4.05;;;;;;;;;;4999406;28;20040;-61
2021/06/26 13:46:44;;;;;;;4.75;4.22;;;;;;;;;;5003241;28;20030;-60
2021/06/26 13:49:11;;;;;;;3.55;3.22;;;;;;;;;;4995634;28;20049;-60
2021/06/26 13:51:38;;;;;;;4.10;3.60;;;;;;;;;;5003242;28;20064;-60
2021/06/26 13:54:04;;;;;;;4.00;3.60;;;;;;;;;;5005833;28;20022;-61
2021/06/26 13:56:30;;;;;;;4.32;3.95;;;;;;;;;;5002846;28;20519;-61
2021/06/26 13:58:55;;;;;;;6.20;5.22;;;;;;;;;;4996436;28;20075;-60
2021/06/26 14:01:21;;;;;;;4.18;3.88;;;;;;;;;;5000914;28;20026;-60
2021/06/26 14:03:47;;;;;;;5.10;4.10;;;;;;;;;;4997093;28;20100;-60
2021/06/26 14:06:14;;;;;;;5.75;4.25;;;;;;;;;;4999613;28;20112;-60
2021/06/26 14:08:40;;;;;;;4.55;3.90;;;;;;;;;;5002676;28;20032;-60
2021/06/26 14:11:06;;;;;;;7.10;3.80;;;;;;;;;;5000689;28;20104;-60
2021/06/26 14:13:32;;;;;;;4.40;4.00;;;;;;;;;;5015552;28;20076;-61
2021/06/26 14:15:57;;;;;;;4.68;3.88;;;;;;;;;;4996530;28;20072;-60
2021/06/26 14:18:23;;;;;;;8.50;5.88;;;;;;;;;;4998328;28;20034;-61
2021/06/26 14:20:48;;;;;;;3.60;3.30;;;;;;;;;;4996841;28;20049;-61
2021/06/26 14:23:16;;;;;;;4.70;4.20;;;;;;;;;;4999636;28;20037;-61
2021/06/26 14:25:42;;;;;;;4.13;3.73;;;;;;;;;;5001629;28;20161;-59